createdAt,value
2022-08-16T00:04:13.964Z,2.83
2022-08-16T00:09:35.830Z,2.33
2022-08-16T00:14:56.746Z,3.07
2022-08-16T00:20:17.036Z,2.90
2022-08-16T00:26:34.701Z,2.80
2022-08-16T00:31:24.145Z,3.10
2022-08-16T00:36:47.196Z,3.00
2022-08-16T00:42:10.216Z,2.97
2022-08-16T00:47:30.371Z,3.00
2022-08-16T00:52:53.321Z,3.20
2022-08-16T00:58:16.273Z,3.00
2022-08-16T01:03:41.674Z,3.87
2022-08-16T01:09:01.933Z,2.80
2022-08-16T01:14:25.072Z,2.90
2022-08-16T01:19:50.299Z,3.13
2022-08-16T01:25:10.404Z,2.80
2022-08-16T01:30:30.636Z,2.73
2022-08-16T01:35:52.294Z,2.50
2022-08-16T01:41:13.335Z,3.10
2022-08-16T01:46:40.655Z,3.10
2022-08-16T01:52:01.240Z,2.90
2022-08-16T01:57:22.810Z,2.77
2022-08-16T02:02:44.754Z,2.93
2022-08-16T02:08:33.758Z,2.80
2022-08-16T02:13:54.884Z,3.20
2022-08-16T02:19:16.432Z,3.20
2022-08-16T02:24:41.176Z,2.80
2022-08-16T02:30:05.152Z,2.93
2022-08-16T02:35:25.668Z,3.27
2022-08-16T02:40:45.786Z,2.90
2022-08-16T02:46:07.516Z,3.37
2022-08-16T02:51:27.764Z,3.07
2022-08-16T02:56:48.212Z,3.00
2022-08-16T03:02:09.046Z,3.13
2022-08-16T03:07:29.176Z,3.20
2022-08-16T03:12:57.251Z,2.30
2022-08-16T03:18:18.596Z,2.50
2022-08-16T03:23:57.684Z,2.73
2022-08-16T03:29:18.332Z,3.13
2022-08-16T03:34:38.463Z,2.87
2022-08-16T03:40:02.541Z,3.00
2022-08-16T03:45:27.232Z,3.07
2022-08-16T03:51:00.152Z,3.43
2022-08-16T03:56:20.999Z,3.20
2022-08-16T04:01:41.475Z,2.50
2022-08-16T04:07:03.329Z,2.87
2022-08-16T04:12:53.332Z,3.40
2022-08-16T04:18:04.292Z,2.67
2022-08-16T04:23:24.933Z,2.70
2022-08-16T04:28:56.787Z,2.90
2022-08-16T04:34:26.541Z,3.10
2022-08-16T04:39:55.676Z,3.20
2022-08-16T04:45:19.346Z,2.70
2022-08-16T04:50:56.461Z,2.40
2022-08-16T04:56:16.710Z,2.60
2022-08-16T05:01:58.147Z,2.57
2022-08-16T05:07:20.560Z,3.13
2022-08-16T05:12:40.759Z,2.43
2022-08-16T05:18:05.312Z,2.80
2022-08-16T05:23:25.437Z,2.90
2022-08-16T05:28:55.615Z,3.00
2022-08-16T05:34:19.634Z,3.40
2022-08-16T05:39:40.931Z,2.90
2022-08-16T05:45:00.980Z,2.43
2022-08-16T05:50:28.240Z,3.00
2022-08-16T05:55:53.976Z,2.33
2022-08-16T06:01:14.371Z,2.90
2022-08-16T06:06:34.410Z,3.10
2022-08-16T06:11:54.680Z,2.50
2022-08-16T06:17:15.221Z,3.20
2022-08-16T06:22:47.726Z,3.00
2022-08-16T06:28:16.943Z,3.63
2022-08-16T06:33:41.269Z,2.30
2022-08-16T06:39:06.012Z,2.60
2022-08-16T06:44:27.037Z,3.03
2022-08-16T06:49:52.811Z,2.77
2022-08-16T06:55:14.605Z,3.13
2022-08-16T07:00:34.574Z,2.40
2022-08-16T07:05:57.767Z,2.33
2022-08-16T07:11:18.039Z,2.67
2022-08-16T07:16:39.085Z,2.30
2022-08-16T07:22:02.828Z,2.47
2022-08-16T07:27:23.813Z,2.80
2022-08-16T07:32:45.025Z,2.60
2022-08-16T07:38:11.817Z,2.70
2022-08-16T07:43:32.975Z,2.40
2022-08-16T07:48:52.971Z,2.17
2022-08-16T07:54:20.910Z,2.57
2022-08-16T07:59:42.697Z,2.20
2022-08-16T08:05:05.864Z,2.80
2022-08-16T08:10:29.238Z,2.67
2022-08-16T08:15:52.898Z,2.33
2022-08-16T08:21:13.509Z,2.63
2022-08-16T08:26:33.651Z,2.47
2022-08-16T08:31:53.922Z,2.80
2022-08-16T08:37:13.905Z,2.73
2022-08-16T08:42:33.932Z,2.63
2022-08-16T08:47:54.343Z,2.57
2022-08-16T08:53:18.641Z,2.17
2022-08-16T08:58:54.916Z,2.60
2022-08-16T09:04:19.067Z,2.43
2022-08-16T09:09:41.214Z,2.17
2022-08-16T09:15:01.464Z,2.57
2022-08-16T09:20:23.488Z,2.53
2022-08-16T09:25:43.995Z,2.33
2022-08-16T09:31:04.124Z,2.27
2022-08-16T09:36:32.245Z,2.57
2022-08-16T09:41:54.241Z,2.67
2022-08-16T09:47:14.856Z,2.47
2022-08-16T09:52:35.088Z,2.30
2022-08-16T09:58:00.264Z,2.23
2022-08-16T10:03:20.561Z,2.33
2022-08-16T10:08:59.733Z,2.20
2022-08-16T10:14:24.979Z,2.93
2022-08-16T10:19:53.435Z,2.57
2022-08-16T10:27:00.535Z,2.80
2022-08-16T10:30:58.815Z,2.47
2022-08-16T10:36:39.277Z,2.30
2022-08-16T10:41:59.705Z,2.53
2022-08-16T10:47:20.834Z,2.70
2022-08-16T10:58:11.659Z,2.70
2022-08-16T11:03:42.148Z,2.70
2022-08-16T11:20:42.048Z,11.73
2022-08-16T11:26:16.658Z,13.50
2022-08-16T11:31:45.990Z,12.40
2022-08-16T11:37:27.182Z,11.20
2022-08-16T11:42:53.936Z,10.80
2022-08-16T11:48:15.000Z,11.90
2022-08-16T11:53:35.784Z,13.10
2022-08-16T11:58:56.944Z,11.63
2022-08-16T12:04:17.138Z,11.70
2022-08-16T12:09:43.517Z,12.00
2022-08-16T12:15:03.747Z,12.30
2022-08-16T12:20:23.967Z,12.90
2022-08-16T12:25:47.573Z,11.13
2022-08-16T12:31:07.812Z,12.17
2022-08-16T12:36:30.488Z,11.80
2022-08-16T12:41:50.584Z,12.37
2022-08-16T12:47:11.258Z,11.43
2022-08-16T12:52:36.797Z,13.73
2022-08-16T12:58:00.465Z,11.73
2022-08-16T13:03:21.643Z,14.23
2022-08-16T13:08:42.067Z,11.00
2022-08-16T13:14:06.908Z,12.50
2022-08-16T13:19:39.376Z,13.03
2022-08-16T13:25:07.242Z,12.23
2022-08-16T13:30:36.600Z,13.87
2022-08-16T13:35:58.275Z,14.60
2022-08-16T13:41:18.353Z,14.03
2022-08-16T13:46:38.769Z,12.57
2022-08-16T13:51:59.095Z,13.43
2022-08-16T13:57:19.266Z,11.83
2022-08-16T14:02:40.529Z,12.60
2022-08-16T14:08:00.685Z,13.57
2022-08-16T14:13:23.377Z,14.30
2022-08-16T14:18:43.476Z,13.00
2022-08-16T14:24:08.162Z,12.10
2022-08-16T14:29:43.724Z,11.80
2022-08-16T14:35:04.004Z,13.03
2022-08-16T14:40:23.874Z,11.23
2022-08-16T14:45:50.650Z,11.60
2022-08-16T14:51:10.891Z,10.90
2022-08-16T14:56:38.460Z,12.53
2022-08-16T15:02:03.234Z,14.10
2022-08-16T15:07:25.412Z,12.50
2022-08-16T15:12:45.622Z,13.37
2022-08-16T15:18:05.615Z,12.30
2022-08-16T15:23:25.650Z,11.27
2022-08-16T15:28:45.677Z,11.63
2022-08-16T15:34:05.772Z,13.10
2022-08-16T15:39:35.562Z,11.90
2022-08-16T15:44:59.716Z,12.20
2022-08-16T15:50:19.825Z,13.63
2022-08-16T15:55:39.950Z,13.30
2022-08-16T16:01:00.255Z,12.90
2022-08-16T16:06:20.246Z,12.13
2022-08-16T16:11:48.002Z,12.83
2022-08-16T16:17:14.751Z,14.10
2022-08-16T16:22:36.799Z,11.60
2022-08-16T16:27:59.828Z,11.93
2022-08-16T16:33:22.238Z,13.80
2022-08-16T16:38:42.873Z,13.00
2022-08-16T16:44:03.619Z,13.73
2022-08-16T16:49:23.804Z,13.40
2022-08-16T16:54:46.839Z,11.30
2022-08-16T17:00:25.791Z,13.40
2022-08-16T17:06:00.306Z,12.30
2022-08-16T17:11:29.737Z,11.43
2022-08-16T17:16:49.787Z,12.03
2022-08-16T17:22:14.361Z,12.53
2022-08-16T17:27:51.317Z,11.40
2022-08-16T17:33:12.163Z,12.90
2022-08-16T17:38:39.084Z,11.07
2022-08-16T17:44:04.926Z,11.77
2022-08-16T17:49:25.065Z,11.00
2022-08-16T17:54:45.410Z,11.73
2022-08-16T18:00:05.567Z,10.50
2022-08-16T18:05:25.855Z,10.80
2022-08-16T18:10:45.992Z,12.60
2022-08-16T18:16:06.636Z,11.60
2022-08-16T18:21:26.693Z,12.30
2022-08-16T18:26:46.939Z,12.07
2022-08-16T18:32:07.001Z,11.93
2022-08-16T18:37:27.121Z,11.83
2022-08-16T18:42:47.352Z,11.47
2022-08-16T18:48:07.557Z,11.50
2022-08-16T18:53:27.736Z,12.73
2022-08-16T18:58:48.039Z,12.37
2022-08-16T19:04:56.081Z,12.50
2022-08-16T19:09:48.066Z,12.27
2022-08-16T19:15:08.083Z,13.00
2022-08-16T19:20:31.812Z,14.03
2022-08-16T19:25:53.072Z,14.97
2022-08-16T19:31:13.118Z,13.20
2022-08-16T19:36:35.358Z,14.43
2022-08-16T19:41:56.431Z,12.70
2022-08-16T19:47:16.588Z,12.13
2022-08-16T19:52:36.585Z,12.13
2022-08-16T19:57:56.797Z,11.77
2022-08-16T20:03:17.028Z,12.03
2022-08-16T20:08:37.244Z,12.07
2022-08-16T20:13:57.423Z,12.80
2022-08-16T20:19:17.555Z,11.80
2022-08-16T20:24:37.728Z,13.70
2022-08-16T20:29:57.773Z,13.67
2022-08-16T20:35:17.866Z,12.20
2022-08-16T20:40:38.139Z,13.03
2022-08-16T20:45:58.328Z,13.90
2022-08-16T20:51:18.513Z,13.93
2022-08-16T20:56:38.644Z,13.30
2022-08-16T21:01:58.953Z,13.33
2022-08-16T21:07:18.988Z,13.03
2022-08-16T21:12:39.127Z,13.40
2022-08-16T21:18:00.208Z,14.57
2022-08-16T21:23:20.492Z,12.73
2022-08-16T21:28:43.467Z,14.50
2022-08-16T21:34:05.382Z,14.00
2022-08-16T21:39:25.541Z,15.27
2022-08-16T21:44:45.718Z,13.37
2022-08-16T21:50:05.805Z,14.33
2022-08-16T21:55:26.030Z,13.10
2022-08-16T22:00:46.238Z,13.27
2022-08-16T22:06:12.971Z,13.23
2022-08-16T22:11:34.366Z,12.00
2022-08-16T22:16:54.363Z,13.20
2022-08-16T22:22:16.660Z,12.23
2022-08-16T22:27:36.749Z,12.63
2022-08-16T22:32:57.077Z,14.00
2022-08-16T22:38:56.602Z,13.07
2022-08-16T22:43:57.368Z,13.23
2022-08-16T22:49:17.535Z,13.43
2022-08-16T22:54:48.403Z,12.83
2022-08-16T23:00:09.209Z,12.87
2022-08-16T23:05:29.362Z,14.60
2022-08-16T23:10:49.439Z,11.97
2022-08-16T23:16:11.236Z,13.33
2022-08-16T23:21:32.089Z,14.00
2022-08-16T23:26:52.667Z,13.70
2022-08-16T23:32:12.792Z,11.47
2022-08-16T23:37:32.970Z,13.60
2022-08-16T23:42:53.963Z,12.00
2022-08-16T23:48:14.316Z,12.30
2022-08-16T23:53:34.545Z,13.77
2022-08-16T23:59:02.871Z,13.40
